createdAt,value
2023-02-26T00:00:46.571Z,100.00
2023-02-26T00:03:15.429Z,100.00
2023-02-26T00:05:42.992Z,100.00
2023-02-26T00:08:09.913Z,100.00
2023-02-26T00:10:36.577Z,100.00
2023-02-26T00:13:04.198Z,100.00
2023-02-26T00:15:31.764Z,100.00
2023-02-26T00:18:07.514Z,100.00
2023-02-26T00:20:37.874Z,100.00
2023-02-26T00:23:05.372Z,100.00
2023-02-26T00:25:32.306Z,100.00
2023-02-26T00:27:59.487Z,100.00
2023-02-26T00:30:26.885Z,100.00
2023-02-26T00:32:54.268Z,100.00
2023-02-26T00:35:21.612Z,100.00
2023-02-26T00:38:12.229Z,100.00
2023-02-26T00:40:49.582Z,100.00
2023-02-26T00:43:26.458Z,100.00
2023-02-26T00:46:44.402Z,100.00
2023-02-26T00:50:17.917Z,100.00
2023-02-26T00:53:22.526Z,100.00
2023-02-26T00:55:49.172Z,100.00
2023-02-26T00:58:15.851Z,100.00
2023-02-26T01:00:42.985Z,100.00
2023-02-26T01:03:11.251Z,100.00
2023-02-26T01:05:38.885Z,100.00
2023-02-26T01:09:01.899Z,100.00
2023-02-26T01:11:29.187Z,100.00
2023-02-26T01:14:00.314Z,100.00
2023-02-26T01:17:04.526Z,100.00
2023-02-26T01:19:54.413Z,100.00
2023-02-26T01:22:38.199Z,100.00
2023-02-26T01:25:26.929Z,100.00
2023-02-26T01:27:56.798Z,100.00
2023-02-26T01:30:25.898Z,100.00
2023-02-26T01:33:24.341Z,100.00
2023-02-26T01:36:24.211Z,100.00
2023-02-26T01:39:36.522Z,100.00
2023-02-26T01:42:19.771Z,100.00
2023-02-26T01:45:20.598Z,100.00
2023-02-26T01:48:18.378Z,100.00
2023-02-26T01:50:45.416Z,100.00
2023-02-26T01:53:29.678Z,100.00
2023-02-26T01:56:18.548Z,100.00
2023-02-26T01:58:50.203Z,100.00
2023-02-26T02:01:16.953Z,100.00
2023-02-26T02:03:46.612Z,100.00
2023-02-26T02:06:31.614Z,100.00
2023-02-26T02:08:58.422Z,100.00
2023-02-26T02:11:25.673Z,100.00
2023-02-26T02:14:17.743Z,100.00
2023-02-26T02:17:28.706Z,100.00
2023-02-26T02:20:47.335Z,100.00
2023-02-26T02:23:45.093Z,100.00
2023-02-26T02:26:36.373Z,100.00
2023-02-26T02:29:33.438Z,100.00
2023-02-26T02:32:38.323Z,100.00
2023-02-26T02:35:21.625Z,100.00
2023-02-26T02:38:09.181Z,100.00
2023-02-26T02:40:49.644Z,99.72
2023-02-26T02:43:37.174Z,98.63
2023-02-26T02:46:31.787Z,98.29
2023-02-26T02:49:23.484Z,98.39
2023-02-26T02:52:51.384Z,100.00
2023-02-26T02:55:33.486Z,97.34
2023-02-26T02:58:13.847Z,98.35
2023-02-26T03:00:57.197Z,98.41
2023-02-26T03:03:57.340Z,95.97
2023-02-26T03:06:24.699Z,97.61
2023-02-26T03:08:54.015Z,96.51
2023-02-26T03:11:24.724Z,97.46
2023-02-26T03:13:55.829Z,100.00
2023-02-26T03:17:25.819Z,98.22
2023-02-26T03:20:27.601Z,92.99
2023-02-26T03:23:15.618Z,94.68
2023-02-26T03:26:03.423Z,94.67
2023-02-26T03:29:01.881Z,95.84
2023-02-26T03:32:02.631Z,95.18
2023-02-26T03:34:50.148Z,94.94
2023-02-26T03:37:45.700Z,94.72
2023-02-26T03:40:41.802Z,99.07
2023-02-26T03:43:44.569Z,98.66
2023-02-26T03:46:24.626Z,99.72
2023-02-26T03:48:55.986Z,100.00
2023-02-26T03:51:32.695Z,100.00
2023-02-26T03:54:26.025Z,100.00
2023-02-26T03:56:54.197Z,100.00
2023-02-26T03:59:21.271Z,100.00
2023-02-26T04:02:35.817Z,100.00
2023-02-26T04:05:18.393Z,100.00
2023-02-26T04:07:48.437Z,100.00
2023-02-26T04:10:25.211Z,100.00
2023-02-26T04:13:02.994Z,100.00
2023-02-26T04:15:30.036Z,100.00
2023-02-26T04:17:56.724Z,100.00
2023-02-26T04:20:23.491Z,100.00
2023-02-26T04:22:52.849Z,100.00
2023-02-26T04:25:19.695Z,100.00
2023-02-26T04:27:46.355Z,100.00
2023-02-26T04:30:13.587Z,100.00
2023-02-26T04:32:42.808Z,100.00
2023-02-26T04:35:12.736Z,100.00
2023-02-26T04:37:41.902Z,100.00
2023-02-26T04:40:15.555Z,100.00
2023-02-26T04:42:47.243Z,100.00
2023-02-26T04:45:14.480Z,100.00
2023-02-26T04:47:44.075Z,100.00
2023-02-26T04:50:16.368Z,100.00
2023-02-26T04:52:43.117Z,100.00
2023-02-26T04:55:13.070Z,100.00
2023-02-26T04:57:46.153Z,100.00
2023-02-26T05:00:15.178Z,100.00
2023-02-26T05:02:45.013Z,100.00
2023-02-26T05:05:11.946Z,100.00
2023-02-26T05:07:38.780Z,100.00
2023-02-26T05:10:19.692Z,100.00
2023-02-26T05:12:46.524Z,100.00
2023-02-26T05:15:13.233Z,100.00
2023-02-26T05:17:42.352Z,100.00
2023-02-26T05:20:18.249Z,100.00
2023-02-26T05:22:45.046Z,100.00
2023-02-26T05:25:15.079Z,100.00
2023-02-26T05:27:48.780Z,100.00
2023-02-26T05:30:17.429Z,100.00
2023-02-26T05:32:45.173Z,100.00
2023-02-26T05:35:19.595Z,100.00
2023-02-26T05:37:47.149Z,100.00
2023-02-26T05:40:14.139Z,100.00
2023-02-26T05:42:44.097Z,100.00
2023-02-26T05:45:14.116Z,100.00
2023-02-26T05:47:44.288Z,100.00
2023-02-26T05:50:14.915Z,100.00
2023-02-26T05:52:44.656Z,100.00
2023-02-26T05:55:14.747Z,100.00
2023-02-26T05:57:44.695Z,100.00
2023-02-26T06:00:15.722Z,100.00
2023-02-26T06:02:48.938Z,100.00
2023-02-26T06:05:21.496Z,100.00
2023-02-26T06:07:48.364Z,100.00
2023-02-26T06:10:15.354Z,100.00
2023-02-26T06:12:51.109Z,100.00
2023-02-26T06:15:18.083Z,100.00
2023-02-26T06:17:44.957Z,100.00
2023-02-26T06:20:26.236Z,100.00
2023-02-26T06:22:52.972Z,100.00
2023-02-26T06:25:35.068Z,100.00
2023-02-26T06:28:01.966Z,100.00
2023-02-26T06:30:32.129Z,100.00
2023-02-26T06:32:58.909Z,100.00
2023-02-26T06:35:25.686Z,98.97
2023-02-26T06:37:52.465Z,97.41
2023-02-26T06:40:19.272Z,99.32
2023-02-26T06:42:48.706Z,100.00
2023-02-26T06:45:18.668Z,100.00
2023-02-26T06:47:45.372Z,100.00
2023-02-26T06:50:18.269Z,100.00
2023-02-26T06:52:44.987Z,100.00
2023-02-26T06:55:16.612Z,100.00
2023-02-26T06:57:45.745Z,100.00
2023-02-26T07:00:34.133Z,100.00
2023-02-26T07:03:00.835Z,100.00
2023-02-26T07:05:29.933Z,100.00
2023-02-26T07:07:59.521Z,100.00
2023-02-26T07:10:28.932Z,100.00
2023-02-26T07:12:55.838Z,100.00
2023-02-26T07:15:22.608Z,100.00
2023-02-26T07:17:51.962Z,100.00
2023-02-26T07:20:25.306Z,100.00
2023-02-26T07:22:52.388Z,100.00
2023-02-26T07:25:19.472Z,100.00
2023-02-26T07:27:46.909Z,100.00
2023-02-26T07:30:18.025Z,100.00
2023-02-26T07:32:44.913Z,100.00
2023-02-26T07:35:11.819Z,100.00
2023-02-26T07:37:42.355Z,100.00
2023-02-26T07:40:10.433Z,100.00
2023-02-26T07:42:43.667Z,100.00
2023-02-26T07:45:12.104Z,94.43
2023-02-26T07:47:43.707Z,96.72
2023-02-26T07:50:11.820Z,94.25
2023-02-26T07:52:46.670Z,95.95
2023-02-26T07:55:24.459Z,96.44
2023-02-26T07:57:53.413Z,97.73
2023-02-26T08:00:20.519Z,98.39
2023-02-26T08:02:47.770Z,97.80
2023-02-26T08:05:17.066Z,98.65
2023-02-26T08:07:46.621Z,94.87
2023-02-26T08:10:13.493Z,89.98
2023-02-26T08:12:44.908Z,88.72
2023-02-26T08:15:21.818Z,88.16
2023-02-26T08:17:48.524Z,87.50
2023-02-26T08:20:19.251Z,89.65
2023-02-26T08:22:51.811Z,85.29
2023-02-26T08:25:26.691Z,79.61
2023-02-26T08:27:56.206Z,80.38
2023-02-26T08:30:32.047Z,80.26
2023-02-26T08:33:07.598Z,79.18
2023-02-26T08:35:34.297Z,80.85
2023-02-26T08:38:00.989Z,81.08
2023-02-26T08:40:30.436Z,81.80
2023-02-26T08:43:00.321Z,83.22
2023-02-26T08:45:30.348Z,87.12
2023-02-26T08:48:02.611Z,88.85
2023-02-26T08:50:35.141Z,90.97
2023-02-26T08:53:09.397Z,97.17
2023-02-26T08:55:47.705Z,99.16
2023-02-26T08:58:14.483Z,100.00
2023-02-26T09:00:52.276Z,100.00
2023-02-26T09:03:45.765Z,100.00
2023-02-26T09:06:12.681Z,100.00
2023-02-26T09:08:42.009Z,100.00
2023-02-26T09:11:12.025Z,100.00
2023-02-26T09:13:45.078Z,100.00
2023-02-26T09:16:12.073Z,100.00
2023-02-26T09:18:38.888Z,100.00
2023-02-26T09:21:06.477Z,100.00
2023-02-26T09:23:36.786Z,100.00
2023-02-26T09:26:04.017Z,100.00
2023-02-26T09:28:30.823Z,100.00
2023-02-26T09:30:57.508Z,100.00
2023-02-26T09:33:27.242Z,100.00
2023-02-26T09:35:54.038Z,100.00
2023-02-26T09:38:21.106Z,100.00
2023-02-26T09:41:09.861Z,100.00
2023-02-26T09:44:10.026Z,100.00
2023-02-26T09:47:00.582Z,96.84
2023-02-26T09:50:02.045Z,95.88
2023-02-26T09:52:59.256Z,96.43
2023-02-26T09:55:52.162Z,94.36
2023-02-26T09:58:35.562Z,94.52
2023-02-26T10:02:23.148Z,97.72
2023-02-26T10:05:20.277Z,100.00
2023-02-26T10:08:32.802Z,100.00
2023-02-26T10:11:42.377Z,100.00
2023-02-26T10:14:23.549Z,100.00
2023-02-26T10:17:08.539Z,100.00
2023-02-26T10:19:51.617Z,100.00
2023-02-26T10:22:48.782Z,98.64
2023-02-26T10:26:00.057Z,100.00
2023-02-26T10:28:57.115Z,100.00
2023-02-26T10:31:59.243Z,100.00
2023-02-26T10:35:17.107Z,100.00
2023-02-26T10:38:12.078Z,100.00
2023-02-26T10:40:50.912Z,98.21
2023-02-26T10:43:47.708Z,92.26
2023-02-26T10:47:10.103Z,95.31
2023-02-26T10:50:03.542Z,100.00
2023-02-26T10:52:37.174Z,100.00
2023-02-26T10:55:15.894Z,100.00
2023-02-26T10:58:16.962Z,100.00
2023-02-26T11:00:58.071Z,100.00
2023-02-26T11:03:42.957Z,100.00
2023-02-26T11:06:36.281Z,100.00
2023-02-26T11:09:06.281Z,100.00
2023-02-26T11:12:23.507Z,100.00
2023-02-26T11:14:56.413Z,100.00
2023-02-26T11:17:32.466Z,98.87
2023-02-26T11:20:15.034Z,85.89
2023-02-26T11:22:53.854Z,92.71
2023-02-26T11:25:31.837Z,97.85
2023-02-26T11:28:32.497Z,98.77
2023-02-26T11:31:07.283Z,98.40
2023-02-26T11:34:05.467Z,99.52
2023-02-26T11:36:39.064Z,99.22
2023-02-26T11:39:18.526Z,99.92
2023-02-26T11:41:52.206Z,100.00
2023-02-26T11:44:45.814Z,92.65
2023-02-26T11:47:27.597Z,78.45
2023-02-26T11:50:14.209Z,78.79
2023-02-26T11:52:54.861Z,88.11
2023-02-26T11:55:38.481Z,89.48
2023-02-26T11:58:25.514Z,91.68
2023-02-26T12:01:01.487Z,90.19
2023-02-26T12:03:36.184Z,80.07
2023-02-26T12:06:04.476Z,74.45
2023-02-26T12:08:38.743Z,75.50
2023-02-26T12:11:46.358Z,80.05
2023-02-26T12:14:58.509Z,70.87
2023-02-26T12:18:32.095Z,65.54
2023-02-26T12:21:48.117Z,63.10
2023-02-26T12:25:02.132Z,61.19
2023-02-26T12:28:28.102Z,56.61
2023-02-26T12:31:17.470Z,54.55
2023-02-26T12:34:14.394Z,53.70
2023-02-26T12:37:42.543Z,63.79
2023-02-26T12:40:30.883Z,74.58
2023-02-26T12:43:38.206Z,79.56
2023-02-26T12:47:05.191Z,79.36
2023-02-26T12:50:01.941Z,78.90
2023-02-26T12:53:11.253Z,84.29
2023-02-26T12:56:24.698Z,87.70
2023-02-26T12:59:31.673Z,82.96
2023-02-26T13:02:47.364Z,84.10
2023-02-26T13:05:56.439Z,75.63
2023-02-26T13:08:39.020Z,69.61
2023-02-26T13:11:45.078Z,64.84
2023-02-26T13:15:19.086Z,66.91
2023-02-26T13:18:24.177Z,59.81
2023-02-26T13:21:21.099Z,62.53
2023-02-26T13:24:18.592Z,59.96
2023-02-26T13:26:48.585Z,60.71
2023-02-26T13:29:27.211Z,60.38
2023-02-26T13:32:06.958Z,62.75
2023-02-26T13:35:09.110Z,67.11
2023-02-26T13:38:16.945Z,73.38
2023-02-26T13:41:27.292Z,80.66
2023-02-26T13:44:52.532Z,81.93
2023-02-26T13:48:06.568Z,65.95
2023-02-26T13:51:03.056Z,65.80
2023-02-26T13:54:05.260Z,70.43
2023-02-26T13:56:31.841Z,72.81
2023-02-26T13:59:15.125Z,78.74
2023-02-26T14:01:47.269Z,82.67
2023-02-26T14:04:53.779Z,84.22
2023-02-26T14:08:09.490Z,81.97
2023-02-26T14:10:57.455Z,65.44
2023-02-26T14:13:36.739Z,65.34
2023-02-26T14:16:29.199Z,68.90
2023-02-26T14:19:33.212Z,62.72
2023-02-26T14:22:43.539Z,58.50
2023-02-26T14:25:52.755Z,54.03
2023-02-26T14:28:44.420Z,51.21
2023-02-26T14:48:43.714Z,52.05
2023-02-26T15:24:20.710Z,49.54
2023-02-26T15:35:23.042Z,53.45
2023-02-26T15:49:24.358Z,78.78
2023-02-26T16:24:34.298Z,100.00
2023-02-26T16:27:08.869Z,100.00
2023-02-26T16:29:42.614Z,100.00
2023-02-26T16:43:53.009Z,100.00
2023-02-26T16:58:06.121Z,100.00
2023-02-26T17:09:10.363Z,100.00
2023-02-26T17:11:48.793Z,100.00
2023-02-26T21:01:46.964Z,100.00
2023-02-26T21:15:21.236Z,100.00
2023-02-26T22:22:54.624Z,100.00
2023-02-26T22:25:22.010Z,100.00
2023-02-26T22:27:49.352Z,100.00
2023-02-26T22:30:19.100Z,100.00
2023-02-26T22:32:49.299Z,100.00
2023-02-26T22:35:19.223Z,100.00
2023-02-26T22:37:46.040Z,100.00
2023-02-26T22:40:19.348Z,100.00
2023-02-26T22:42:46.405Z,100.00
2023-02-26T22:45:17.041Z,100.00
2023-02-26T22:47:56.379Z,100.00
2023-02-26T22:50:23.990Z,100.00
2023-02-26T22:52:50.921Z,100.00
2023-02-26T22:55:21.843Z,100.00
2023-02-26T22:57:48.667Z,100.00
2023-02-26T23:00:20.841Z,100.00
2023-02-26T23:02:51.040Z,100.00
2023-02-26T23:05:19.626Z,100.00
2023-02-26T23:07:46.882Z,100.00
2023-02-26T23:10:21.471Z,100.00
2023-02-26T23:12:51.862Z,100.00
2023-02-26T23:15:21.234Z,100.00
2023-02-26T23:17:47.965Z,100.00
2023-02-26T23:20:16.957Z,100.00
2023-02-26T23:22:46.749Z,100.00
2023-02-26T23:25:13.509Z,100.00
2023-02-26T23:27:46.966Z,100.00
2023-02-26T23:30:18.182Z,100.00
2023-02-26T23:32:45.120Z,100.00
2023-02-26T23:35:13.908Z,100.00
2023-02-26T23:37:52.043Z,100.00
2023-02-26T23:40:19.005Z,100.00
2023-02-26T23:42:45.918Z,100.00
2023-02-26T23:45:13.437Z,100.00
2023-02-26T23:47:52.388Z,100.00
2023-02-26T23:50:19.341Z,100.00
2023-02-26T23:52:49.002Z,100.00
2023-02-26T23:55:16.137Z,100.00
2023-02-26T23:57:45.928Z,100.00
